Date,TemperatureHighF,TemperatureAvgF,TemperatureLowF,DewpointHighF,DewpointAvgF,DewpointLowF,HumidityHigh,HumidityAvg,HumidityLow,PressureMaxIn,PressureMinIn,WindSpeedMaxMPH,WindSpeedAvgMPH,GustSpeedMaxMPH,PrecipitationSumIn
2013-1-1,17.0,9.0,-2.1,11.0,2.0,-6.0,87,74,55,30.47,30.29,10,3,13,0.00
2013-1-2,22.0,17.1,10.9,17.0,10.2,-99.9,85,77,69,30.28,30.13,16,-3,23,0.00
2013-1-3,22.8,18.4,10.1,20.0,13.5,6.0,89,81,70,30.41,30.21,12,5,16,0.00
2013-1-4,31.9,21.9,10.3,19.0,15.2,6.0,87,76,59,30.32,30.23,13,6,16,0.00
2013-1-5,35.1,24.0,14.6,28.0,18.5,-99.9,91,82,70,30.31,30.00,21,-2,27,0.00
2013-1-6,28.2,22.2,15.5,20.0,15.7,11.0,85,77,63,30.39,30.08,12,5,16,0.00
2013-1-7,38.0,29.0,15.5,28.0,22.4,12.0,89,76,62,30.33,30.08,22,10,30,0.00
2013-1-8,39.0,29.4,18.8,33.0,25.4,17.0,94,85,72,30.16,29.96,21,8,25,0.00
2013-1-9,40.5,34.1,27.3,30.0,24.6,-99.9,85,71,53,30.54,30.06,15,-5,29,0.00
2013-1-10,42.9,28.9,22.1,36.0,11.5,-99.9,93,70,43,30.55,29.90,16,-111,20,0.09
2013-1-11,44.1,32.0,36.2,44.0,14.4,-99.9,98,80,93,29.89,29.56,15,-165,21,0.02
2013-1-12,41.4,19.0,15.2,36.0,-5.2,-99.9,82,59,67,30.18,29.56,25,-169,37,0.00
2013-1-13,15.3,12.0,10.0,7.0,4.6,3.0,79,72,67,30.42,30.14,14,6,22,0.00
2013-1-14,24.3,15.3,7.6,14.0,8.9,3.0,87,76,65,30.58,30.42,12,4,15,0.00
2013-1-15,33.0,23.2,13.9,18.0,14.8,11.0,90,71,53,30.52,30.11,15,9,22,0.00
2013-1-16,40.6,30.1,23.6,33.0,22.6,12.0,86,74,55,30.26,29.88,19,8,28,0.00
2013-1-17,25.4,20.3,15.0,16.0,7.9,1.0,76,59,47,30.54,30.27,16,5,25,0.00
2013-1-18,47.6,33.8,18.8,35.0,25.0,-99.9,82,73,59,30.50,29.89,24,-2,32,0.00
2013-1-19,47.7,34.4,9.3,35.0,25.9,-1.0,88,72,43,30.25,29.77,36,12,52,0.00
2013-1-20,14.8,9.9,6.1,2.0,-0.6,-2.0,75,63,49,30.50,30.26,18,8,24,0.00
2013-1-21,8.0,0.2,-3.2,1.0,-9.0,-13.0,72,65,57,30.50,30.36,20,10,25,0.00
2013-1-22,9.0,2.5,-3.7,-2.0,-6.7,-11.0,78,66,55,30.58,30.45,11,4,13,0.00
2013-1-23,20.0,12.2,1.0,14.0,3.8,-10.0,85,70,53,30.70,30.26,29,9,34,0.00
2013-1-24,15.5,5.8,-1.8,5.0,-4.2,-11.0,70,64,58,30.84,30.44,14,5,19,0.00
2013-1-25,24.0,18.7,12.9,18.0,11.2,5.0,87,73,62,30.43,30.10,19,7,27,0.00
2013-1-26,26.8,17.4,6.9,14.0,7.9,3.0,83,67,55,30.55,30.37,16,5,21,0.00
2013-1-27,33.0,30.4,26.9,32.0,24.4,14.0,95,79,59,30.38,29.91,15,6,22,0.02
2013-1-28,38.4,32.6,32.4,36.0,28.3,-99.9,97,92,91,30.05,29.78,10,-30,14,0.14
2013-1-29,46.5,38.2,35.0,46.0,36.2,31.0,98,92,84,29.78,29.59,14,7,22,0.05
2013-1-30,34.7,21.6,15.0,31.0,9.6,-99.9,95,80,74,29.82,29.58,21,-84,31,0.00
2013-1-31,15.3,8.3,-0.1,11.0,2.3,-7.0,84,76,72,30.39,29.82,19,10,27,0.00
2013-2-1,6.9,0.9,-5.9,4.0,-5.9,-12.0,96,73,59,30.50,30.26,14,6,19,0.00
2013-2-2,14.6,9.5,6.0,8.0,4.5,3.0,88,81,65,30.32,30.14,10,4,12,0.00
2013-2-3,17.8,14.4,11.2,13.0,9.3,6.0,90,80,64,30.22,30.11,14,5,16,0.00
2013-2-4,20.4,15.8,12.7,13.0,8.2,3.0,90,73,51,30.17,30.04,13,5,16,0.01
2013-2-5,31.1,22.0,11.6,28.0,16.0,-99.9,94,83,73,30.24,29.87,19,-14,21,0.00
2013-2-6,33.7,20.6,5.7,31.0,17.3,3.0,92,87,74,30.31,30.10,12,3,20,0.00
2013-2-7,33.2,30.0,26.3,30.0,28.1,25.0,95,92,89,30.30,30.09,15,7,21,0.00
2013-2-8,29.9,22.7,17.7,25.0,9.8,-99.9,94,73,59,30.51,30.32,12,-69,16,0.00
2013-2-9,30.6,26.6,18.7,27.0,23.0,15.0,89,86,84,30.46,30.11,24,11,29,0.01
2013-2-10,41.1,33.9,30.8,40.0,26.6,-99.9,96,86,85,30.12,29.39,25,-43,33,0.24
2013-2-11,36.2,26.1,22.2,35.0,10.0,-99.9,96,74,75,30.16,29.40,25,-115,34,0.01
2013-2-12,35.4,24.5,20.8,27.0,9.6,-99.9,88,71,66,30.20,29.95,14,-88,22,0.00
2013-2-13,38.1,30.7,21.7,33.0,26.4,20.0,94,84,70,29.95,29.68,13,5,18,0.02
2013-2-14,36.8,23.2,21.6,34.0,-8.6,-99.9,94,55,57,30.23,29.66,20,-259,28,0.01
2013-2-15,21.3,17.6,13.3,10.0,7.0,4.0,72,63,56,30.40,30.24,15,6,21,0.01
2013-2-16,20.5,13.5,6.9,8.0,4.1,-99.9,82,69,56,30.39,30.30,10,-8,15,0.00
2013-2-17,30.8,19.8,6.3,22.0,12.0,3.0,87,72,56,30.32,29.91,19,7,28,0.00
2013-2-18,41.0,27.3,16.2,33.0,14.5,-99.9,89,73,70,29.90,29.62,25,-64,26,0.00
2013-2-19,15.7,9.5,7.7,11.0,-5.6,-99.9,85,66,63,30.45,29.81,22,-73,33,0.00
2013-2-20,21.5,12.4,4.3,10.0,4.0,-3.0,83,69,58,30.58,30.46,14,5,16,0.00
2013-2-21,24.5,17.8,11.0,22.0,11.8,6.0,92,77,70,30.59,30.18,22,7,24,0.00
2013-2-22,29.4,23.0,23.9,26.0,8.9,-99.9,93,78,81,30.16,29.94,12,-111,24,0.08
2013-2-23,30.1,25.9,22.5,23.0,21.1,19.0,88,82,72,30.10,29.98,15,4,15,0.01
2013-2-24,37.8,26.6,14.2,24.0,19.2,11.0,90,75,54,30.23,30.10,10,2,12,0.01
2013-2-25,43.1,28.8,27.6,29.0,8.6,-99.9,87,64,58,30.25,30.13,8,-134,12,0.00
2013-2-26,38.2,29.9,25.2,28.0,16.7,-99.9,89,72,66,30.14,29.87,22,-63,31,0.00
2013-2-27,34.6,27.2,31.4,32.0,7.3,-99.9,92,72,76,30.02,29.85,18,-162,23,0.02
2013-2-28,32.7,31.7,28.6,29.0,25.0,19.0,90,76,67,30.28,30.03,23,9,26,0.02
2013-3-1,30.8,20.3,22.9,19.0,-10.1,-99.9,79,53,58,30.42,30.28,19,-228,20,0.00
2013-3-2,29.8,20.2,13.8,14.0,0.3,-99.9,87,59,44,30.45,30.32,9,-102,14,0.00
2013-3-3,30.5,9.4,13.0,16.0,-43.7,-99.9,87,38,53,30.31,30.15,7,-499,9,0.00
2013-3-4,31.2,27.8,26.1,25.0,14.4,-99.9,81,62,40,30.20,30.10,15,-13,24,0.00
2013-3-5,29.3,25.1,25.3,27.0,16.0,-99.9,95,85,79,30.33,30.08,15,-66,19,0.01
2013-3-6,31.5,24.2,19.7,24.0,11.3,-99.9,91,73,63,30.49,30.33,15,-68,21,0.05
2013-3-7,39.0,24.5,10.2,22.0,16.6,8.0,90,73,50,30.55,30.46,7,2,13,0.02
2013-3-8,43.1,32.5,22.5,30.0,25.3,19.0,88,75,61,30.54,30.30,15,8,18,0.01
2013-3-9,39.1,33.9,33.7,38.0,21.6,-99.9,96,80,78,30.30,29.86,24,-85,26,0.31
2013-3-10,39.2,32.8,32.7,38.0,21.8,-99.9,97,86,92,29.96,29.79,15,-95,23,0.19
2013-3-11,32.6,29.9,29.4,32.0,25.1,-99.9,97,90,86,29.93,29.76,11,-26,16,0.20
2013-3-12,30.2,23.5,22.7,26.0,6.1,-99.9,88,71,71,30.23,29.93,19,-123,25,0.00
2013-3-13,32.0,16.5,19.9,20.0,-21.4,-99.9,84,47,51,30.46,30.23,13,-315,21,0.00
2013-3-14,37.9,20.4,22.6,30.0,-11.2,-99.9,92,58,69,30.44,30.14,10,-272,15,0.00
2013-3-15,36.0,9.4,30.7,33.0,-65.1,-99.9,94,24,87,30.14,29.89,9,-722,12,0.13
2013-3-16,32.6,18.4,24.1,32.0,-17.5,-99.9,96,57,69,30.31,29.92,15,-328,20,0.16
2013-3-17,33.0,22.8,15.5,20.0,2.7,-99.9,73,57,50,30.40,30.09,22,-78,27,0.00
2013-3-18,30.9,22.4,16.0,29.0,9.7,-99.9,94,76,70,30.09,29.70,23,-78,33,0.00
2013-3-19,27.5,17.6,11.5,11.0,7.6,5.0,78,66,45,30.27,29.92,23,12,28,0.00
2013-3-20,21.5,15.3,8.5,9.0,4.1,-1.0,69,61,55,30.31,30.21,23,9,26,0.00
2013-3-21,27.6,19.0,8.6,15.0,8.8,4.0,81,65,51,30.26,30.16,13,3,16,0.00
2013-3-22,36.2,22.7,12.3,18.0,6.6,-99.9,86,61,41,30.23,30.14,8,-54,12,0.01
2013-3-23,40.7,24.8,22.7,24.0,-9.1,-99.9,82,46,38,30.27,30.15,10,-236,12,0.01
2013-3-24,33.5,10.0,31.7,29.0,-61.9,-99.9,88,22,64,30.18,29.99,18,-693,23,0.00
2013-3-25,35.4,23.6,24.5,24.0,-6.4,-99.9,81,54,60,30.28,30.04,20,-225,26,0.00
2013-3-26,32.7,12.4,26.7,23.0,-49.6,-99.9,79,30,67,30.40,30.28,9,-585,13,0.00
2013-3-27,42.7,13.3,34.3,22.0,-59.3,-99.9,60,16,41,30.45,30.37,11,-661,15,0.00
2013-3-28,48.0,30.0,26.0,26.0,-7.4,-99.9,83,40,35,30.48,30.38,11,-246,12,0.00
2013-3-29,51.2,34.3,26.7,30.0,-0.3,-99.9,89,44,34,30.44,30.26,10,-199,13,0.00
2013-3-30,49.6,40.0,40.9,45.0,24.3,-99.9,94,69,63,30.26,29.93,19,-81,26,0.36
2013-3-31,42.0,36.8,32.6,40.0,28.1,13.0,96,74,37,30.10,29.88,26,8,30,0.36
2013-4-1,34.4,28.4,24.3,18.0,11.3,-99.9,69,54,42,30.34,30.11,19,-27,23,0.00
2013-4-2,37.1,30.7,23.6,19.0,15.3,-99.9,78,56,39,30.47,30.34,23,-6,24,0.00
2013-4-3,45.1,33.7,23.4,25.0,16.6,-99.9,86,56,29,30.58,30.31,18,-18,23,0.00
2013-4-4,51.6,43.0,37.1,37.0,28.2,23.0,68,57,42,30.31,30.10,13,8,20,0.00
2013-4-5,50.1,36.9,31.6,35.0,12.8,-99.9,83,51,30,30.34,30.10,15,-96,23,0.01
2013-4-6,57.1,46.7,39.5,50.0,35.2,20.0,91,66,45,30.09,29.58,24,11,33,0.14
2013-4-7,52.7,43.6,38.2,40.0,30.8,-99.9,83,69,57,30.06,29.79,11,-21,21,0.14
2013-4-8,53.7,45.3,41.1,45.0,35.9,-99.9,89,76,70,30.08,29.78,14,-29,19,0.01
2013-4-9,42.3,39.5,36.7,40.0,36.0,-99.9,95,90,83,30.19,29.91,29,0,39,1.56
2013-4-10,37.6,34.8,32.7,35.0,32.2,30.0,94,90,74,30.22,29.95,25,11,35,0.12
2013-4-11,38.7,35.4,33.2,35.0,31.1,-99.9,95,87,75,29.97,29.72,18,-4,29,0.22
2013-4-12,36.1,32.0,31.1,32.0,24.6,-99.9,96,85,77,29.91,29.69,15,-40,20,0.04
2013-4-13,37.3,34.4,31.4,32.0,27.8,26.0,92,77,65,30.10,29.91,14,6,23,0.04
2013-4-14,42.2,36.0,33.3,41.0,31.3,-99.9,96,86,73,30.09,29.64,20,-4,27,1.28
2013-4-15,47.2,41.4,37.4,40.0,29.8,-99.9,97,73,56,30.10,29.71,26,-15,36,1.28
2013-4-16,48.5,40.5,34.4,32.0,30.3,28.0,83,68,46,30.42,30.09,11,4,16,0.00
2013-4-17,42.0,38.2,37.2,38.0,29.8,-99.9,94,78,66,30.41,29.89,29,-24,46,0.49
2013-4-18,41.1,39.0,35.0,40.0,37.5,33.0,97,94,91,29.91,29.44,19,8,30,0.35
2013-4-19,38.0,31.6,33.0,33.0,15.5,-99.9,93,68,59,30.07,29.47,28,-82,40,0.36
2013-4-20,46.5,35.4,27.2,28.0,12.9,-99.9,89,50,27,30.43,30.08,10,-51,18,0.00
2013-4-21,54.1,43.5,33.4,46.0,32.0,-99.9,94,68,47,30.50,30.20,26,0,34,0.21
2013-4-22,50.4,46.5,41.9,49.0,43.5,-99.9,96,91,85,30.27,30.05,15,-5,21,0.15
2013-4-23,42.0,38.3,35.6,41.0,31.6,25.0,96,78,58,30.17,30.04,18,8,27,0.26
2013-4-24,53.1,39.0,31.1,37.0,19.8,-99.9,85,57,40,30.18,30.01,25,-59,34,0.03
2013-4-25,50.7,42.5,36.8,37.0,31.8,28.0,89,68,42,30.35,30.09,14,6,25,0.04
2013-4-26,71.8,58.3,44.3,49.0,39.5,28.0,69,51,35,30.29,30.12,23,11,36,0.00
2013-4-27,67.7,51.9,50.6,50.0,27.6,-99.9,87,56,49,30.25,30.05,20,-128,24,0.00
2013-4-28,72.6,61.2,47.9,48.0,46.6,45.0,88,61,39,30.05,29.79,21,9,24,0.00
2013-4-29,70.9,64.2,57.6,57.0,51.0,-99.9,87,66,55,29.87,29.67,21,-14,23,0.05
2013-4-30,82.7,71.2,56.5,60.0,56.0,48.0,82,61,41,30.03,29.62,28,11,37,0.00
2013-5-1,55.8,50.3,40.3,51.0,42.9,34.0,90,76,63,30.44,29.98,24,12,39,0.00
2013-5-2,40.4,35.9,32.9,36.0,33.2,31.0,94,90,79,30.53,30.41,27,14,39,0.51
2013-5-3,38.3,35.3,32.7,37.0,33.6,31.0,95,93,91,30.43,30.16,16,7,22,0.43
2013-5-4,63.4,47.5,37.5,54.0,42.2,-99.9,96,85,70,30.18,30.11,16,-3,22,0.54
2013-5-5,71.5,55.8,43.1,52.0,46.1,40.0,90,72,48,30.20,30.07,12,6,15,0.00
2013-5-6,77.2,58.0,50.4,52.0,32.1,-99.9,91,52,24,30.16,30.04,8,-92,13,0.00
2013-5-7,79.8,56.7,52.0,51.0,22.6,-99.9,87,43,23,30.13,30.01,11,-154,14,0.00
2013-5-8,80.0,66.4,52.6,53.0,44.1,-99.9,84,51,22,30.08,29.97,12,-17,28,0.00
2013-5-9,61.6,54.2,53.2,58.0,44.2,-99.9,94,84,83,30.03,29.95,24,-70,32,0.42
2013-5-10,64.7,52.4,43.3,50.0,43.0,-99.9,93,74,49,30.11,30.00,23,-3,28,0.42
2013-5-11,54.1,49.2,45.3,50.0,34.4,24.0,90,59,36,30.19,29.89,27,10,38,0.00
2013-5-12,55.1,47.3,40.3,32.0,24.3,20.0,58,42,27,30.27,30.16,22,8,28,0.00
2013-5-13,64.7,53.8,37.7,44.0,34.4,28.0,81,51,27,30.24,29.84,22,8,27,0.00
2013-5-14,88.7,73.3,58.8,59.0,51.7,37.0,74,50,21,29.84,29.50,23,10,30,0.00
2013-5-15,78.2,69.7,61.7,51.0,46.0,37.0,69,44,23,29.93,29.65,15,6,22,0.00
2013-5-16,86.6,69.4,54.2,54.0,47.1,-99.9,89,52,24,29.98,29.87,12,-17,16,0.00
2013-5-17,70.3,59.2,49.8,60.0,51.2,39.0,93,77,41,30.11,29.95,14,6,22,0.61
2013-5-18,81.7,69.1,56.0,64.0,57.5,50.0,80,68,54,30.10,29.89,16,5,19,0.61
2013-5-19,84.8,73.0,63.1,68.0,63.9,61.0,94,74,55,29.92,29.59,27,10,36,0.76
2013-5-20,78.9,70.2,62.8,65.0,61.2,58.0,95,75,50,29.73,29.59,23,9,36,0.34
2013-5-21,70.9,65.3,60.7,62.0,58.2,54.0,94,79,62,29.73,29.60,16,6,24,0.62
2013-5-22,62.8,59.9,53.9,59.0,57.1,53.0,95,90,83,29.90,29.69,20,5,27,0.49
2013-5-23,64.2,55.6,46.8,51.0,41.9,33.0,94,65,31,30.39,29.94,21,9,26,0.61
2013-5-24,66.3,56.8,44.7,46.0,40.5,35.0,78,56,42,30.52,30.33,13,5,18,0.00
2013-5-25,60.6,56.5,51.5,50.0,46.1,40.0,90,69,55,30.40,30.32,18,7,24,0.10
2013-5-26,56.7,54.7,51.8,53.0,44.9,37.0,91,71,51,30.35,30.17,14,6,23,0.14
2013-5-27,57.6,56.4,53.9,55.0,51.8,47.0,94,85,70,30.16,29.92,19,5,27,0.29
2013-5-28,65.5,58.4,53.1,61.0,56.1,52.0,96,92,84,29.92,29.75,10,2,13,0.07
2013-5-29,82.0,67.2,60.5,68.0,62.6,59.0,96,86,61,29.90,29.79,31,6,35,2.03
2013-5-30,78.0,70.5,64.9,69.0,65.1,62.0,92,83,62,29.82,29.62,25,10,41,0.48
2013-5-31,79.6,70.2,64.2,65.0,61.9,53.0,90,76,51,29.73,29.64,27,14,35,0.01
2013-6-1,72.4,63.8,55.7,61.0,57.1,53.0,93,79,56,29.86,29.63,20,6,32,0.01
2013-6-2,61.7,54.3,47.8,52.0,43.8,41.0,89,69,50,30.11,29.88,24,8,28,0.01
2013-6-3,70.7,60.3,48.6,54.0,47.2,42.0,96,66,38,30.16,30.03,8,2,11,0.00
2013-6-4,61.2,56.8,55.3,55.0,52.5,-99.9,94,88,71,30.20,30.10,14,4,22,0.39
2013-6-5,58.5,55.9,53.5,57.0,53.8,50.0,97,92,86,30.16,30.00,10,3,14,0.04
2013-6-6,57.5,55.6,54.3,57.0,54.5,53.0,99,96,92,30.06,29.98,10,4,12,0.28
2013-6-7,71.2,60.6,53.6,56.0,52.6,51.0,97,77,51,30.09,29.98,9,2,13,0.28
2013-6-8,72.7,64.5,56.6,60.0,55.6,51.0,94,74,50,30.00,29.96,15,4,21,0.00
2013-6-9,67.7,63.3,60.0,65.0,57.8,51.0,96,83,57,30.00,29.83,22,5,30,0.13
2013-6-10,77.4,67.8,60.6,64.0,61.8,59.0,99,82,57,29.91,29.83,9,1,11,0.13
2013-6-11,80.8,71.0,59.8,69.0,64.7,59.0,98,81,62,29.96,29.84,11,3,18,0.01
2013-6-12,77.2,70.9,65.4,70.0,66.4,61.0,94,85,74,29.94,29.72,22,6,29,0.14
2013-6-13,77.9,69.9,62.6,62.0,58.1,54.0,94,68,45,30.10,29.86,14,5,22,0.14
2013-6-14,76.8,69.9,62.0,61.0,56.9,54.0,85,65,48,30.18,29.96,13,5,18,0.00
2013-6-15,79.6,71.1,63.6,69.0,64.8,59.0,92,81,67,30.04,29.84,15,6,24,0.14
2013-6-16,84.7,74.3,63.2,66.0,58.6,48.0,97,64,28,29.95,29.89,14,4,20,0.00
2013-6-17,83.8,74.3,64.3,62.0,58.1,53.0,86,60,35,29.99,29.90,12,4,23,0.00
2013-6-18,75.8,68.5,60.2,60.0,53.4,45.0,82,60,45,30.13,29.99,16,6,18,0.00
2013-6-19,79.2,70.0,59.6,61.0,54.6,48.0,72,59,51,30.18,30.05,14,6,19,0.00
2013-6-20,86.7,77.1,67.1,64.0,61.5,58.0,78,60,42,30.12,29.98,20,9,25,0.00
2013-6-21,80.1,74.5,63.8,70.0,66.1,62.0,95,76,59,30.08,29.85,33,7,43,1.38
2013-6-22,85.1,73.1,66.8,75.0,68.2,65.0,95,85,71,30.12,29.86,22,9,32,1.16
2013-6-23,82.5,74.2,66.1,71.0,67.0,64.0,94,79,57,30.05,29.81,27,9,28,1.54
2013-6-24,78.3,72.6,68.6,72.0,68.4,67.0,93,87,74,29.99,29.88,16,6,25,0.07
2013-6-25,69.2,66.9,65.5,67.0,65.7,64.0,97,95,91,29.93,29.84,10,3,16,1.08
2013-6-27,86.8,79.5,74.4,63.0,54.0,-99.9,59,45,40,29.81,29.78,24,-25,31,0.00
2013-6-28,76.6,71.8,67.0,65.0,61.8,57.0,87,71,57,29.81,29.71,18,6,31,0.01
2013-6-29,71.8,66.2,62.6,65.0,61.2,56.0,93,84,67,29.96,29.73,22,7,29,0.13
2013-6-30,79.1,69.0,60.5,59.0,52.3,45.0,79,58,31,30.11,29.96,15,6,22,0.13
2013-7-1,81.2,69.2,58.9,60.0,51.2,-99.9,88,60,38,30.22,30.12,11,-28,22,0.00
2013-7-2,79.5,71.6,61.9,62.0,58.5,55.0,90,65,44,30.17,30.09,15,4,16,0.00
2013-7-3,80.3,70.3,58.4,61.0,53.9,48.0,89,59,37,30.16,30.04,11,3,16,0.00
2013-7-4,82.6,73.7,64.4,64.0,61.3,59.0,85,67,50,30.09,29.98,18,8,24,0.00
2013-7-5,85.7,77.3,67.2,65.0,63.2,60.0,82,63,46,30.06,29.95,22,9,30,0.00
2013-7-6,87.0,79.2,72.7,69.0,66.3,64.0,75,65,53,30.01,29.90,18,10,24,0.00
2013-7-7,86.5,80.2,74.0,73.0,70.1,67.0,82,72,63,29.95,29.87,16,9,22,0.00
2013-7-8,87.8,80.1,75.0,74.0,71.8,69.0,86,76,61,30.00,29.88,13,3,18,0.00
2013-7-9,89.0,78.7,72.0,76.0,72.1,70.0,94,81,57,30.00,29.82,21,6,28,0.09
2013-7-10,78.8,74.5,66.8,70.0,60.4,54.0,81,63,44,30.07,29.89,18,6,27,0.00
2013-7-11,84.1,72.7,61.6,63.0,59.8,56.0,91,67,39,30.17,30.08,9,3,14,0.00
2013-7-12,82.2,74.3,65.8,66.0,61.8,60.0,86,66,49,30.16,30.06,20,9,25,0.00
2013-7-13,79.2,73.5,68.4,66.0,62.2,59.0,80,68,56,30.16,30.06,21,8,26,0.00
2013-7-14,86.9,77.7,67.1,70.0,64.9,61.0,83,66,45,30.24,30.16,14,5,20,0.00
2013-7-15,92.2,80.7,69.1,74.0,70.5,67.0,92,72,52,30.30,30.20,12,3,14,0.00
2013-7-16,91.7,84.1,76.1,76.0,74.1,72.0,89,73,54,30.28,30.21,14,5,18,0.00
2013-7-17,95.3,86.1,77.5,76.0,73.5,69.0,88,68,44,30.30,30.16,9,3,15,0.00
2013-7-18,93.6,86.1,78.4,76.0,72.6,70.0,88,66,48,30.16,29.87,22,7,29,0.00
2013-7-19,90.0,82.6,73.0,73.0,67.3,57.0,81,61,35,29.90,29.78,18,7,28,0.02
2013-7-20,82.3,74.5,66.3,66.0,63.7,60.0,89,70,48,29.98,29.89,11,2,11,0.00
2013-7-21,74.9,70.2,65.9,67.0,64.2,62.0,90,81,65,30.00,29.90,15,5,20,0.00
2013-7-22,86.9,71.8,64.2,75.0,66.8,62.0,92,84,66,29.92,29.70,20,6,23,0.10
2013-7-23,72.8,68.9,63.0,68.0,57.0,53.0,88,67,53,30.06,29.80,19,7,23,0.00
2013-7-24,76.1,67.1,56.6,62.0,55.4,52.0,91,68,43,30.14,30.05,8,1,11,0.00
2013-7-25,78.8,66.3,63.3,68.0,59.3,-99.9,93,82,69,30.09,29.99,18,-4,20,0.50
2013-7-26,74.9,68.3,59.5,65.0,59.9,54.0,92,76,49,30.04,29.93,23,8,30,0.01
2013-7-27,60.2,56.4,52.2,53.0,49.0,46.0,87,76,62,30.08,29.97,18,8,32,0.01
2013-7-28,68.1,59.6,52.1,55.0,51.8,47.0,92,76,61,30.12,29.96,15,4,24,0.00
2013-7-29,77.8,64.6,53.1,60.0,53.0,-99.9,96,71,45,30.21,30.12,12,-11,15,0.00
2013-7-30,76.7,68.9,60.2,65.0,61.5,58.0,93,78,65,30.19,30.10,14,4,18,0.00
2013-7-31,78.9,71.3,67.5,67.0,62.1,-99.9,89,75,58,30.12,30.00,10,-8,18,0.00
2013-8-1,80.3,71.2,59.5,65.0,57.9,54.0,86,65,43,30.09,29.90,9,2,11,0.00
2013-8-2,77.5,70.1,63.6,65.0,58.1,-99.9,94,70,46,30.06,29.88,12,-8,15,0.00
2013-8-3,75.7,67.4,57.2,59.0,55.3,52.0,91,68,44,30.23,30.06,14,2,20,0.00
2013-8-4,75.4,66.1,55.0,61.0,55.1,49.0,93,70,41,30.29,30.12,7,1,12,0.00
2013-8-5,70.6,65.6,59.6,66.0,61.6,55.0,95,87,75,30.12,29.88,14,5,20,0.35
2013-8-6,85.3,74.2,66.0,70.0,67.0,63.0,97,80,53,29.91,29.76,13,4,35,0.00
2013-8-7,75.7,68.8,63.4,64.0,61.6,59.0,94,79,61,30.06,29.80,12,4,19,0.00
2013-8-8,78.4,67.1,55.8,61.0,57.5,54.0,95,74,48,30.11,30.03,11,1,13,0.00
2013-8-9,77.5,70.2,63.1,64.0,58.9,53.0,90,69,45,30.14,30.03,15,3,23,0.00
2013-8-10,75.8,67.2,57.7,59.0,56.2,53.0,91,70,47,30.22,30.14,8,1,13,0.00
2013-8-11,73.0,66.4,60.9,66.0,63.1,58.0,96,89,77,30.18,30.06,9,2,12,0.81
2013-8-12,78.2,70.0,63.6,67.0,61.9,56.0,97,78,50,30.09,30.00,13,2,21,0.00
2013-8-13,72.9,64.4,56.5,57.0,52.3,48.0,87,67,45,30.23,30.09,9,2,14,0.00
2013-8-14,77.1,61.2,53.7,60.0,46.3,-99.9,94,69,43,30.27,30.17,7,-53,12,0.00
2013-8-15,78.1,67.8,59.1,61.0,56.3,52.0,93,70,42,30.22,30.14,8,2,14,0.00
2013-8-16,81.5,68.6,55.7,61.0,56.9,53.0,97,70,40,30.26,30.19,7,1,11,0.00
2013-8-17,63.6,62.8,62.0,60.0,59.2,59.0,89,87,86,30.24,30.24,2,0,6,0.00
2013-9-5,80.1,72.3,68.6,68.0,58.9,-99.9,81,69,65,30.30,30.19,8,-39,12,0.00
2013-9-6,86.6,72.4,63.2,69.0,59.8,-99.9,80,68,51,30.21,29.95,18,-13,23,0.00
2013-9-7,90.7,78.1,72.2,74.0,63.8,-99.9,79,66,55,29.97,29.87,11,-27,16,0.00
2013-9-8,77.6,71.0,65.8,70.0,64.0,58.0,87,78,72,30.10,29.95,14,6,23,0.00
2013-9-9,91.0,75.9,68.9,78.0,65.9,-99.9,90,76,53,29.95,29.73,19,-14,25,0.00
2013-9-10,89.2,76.2,74.0,71.0,58.4,-99.9,77,62,54,30.00,29.79,14,-51,23,0.00
2013-9-11,82.8,72.4,67.4,68.0,59.2,-99.9,90,69,52,30.07,30.01,11,-29,19,0.00
2013-9-12,72.2,66.0,59.7,62.0,53.5,48.0,86,65,43,30.24,30.03,18,6,26,0.00
2013-9-13,69.5,58.4,49.1,51.0,46.4,43.0,87,66,43,30.34,30.19,11,2,15,0.00
2013-9-14,71.5,60.1,48.7,55.0,48.7,46.0,94,69,44,30.21,29.98,15,7,23,0.12
2013-9-15,66.0,52.9,56.2,57.0,38.7,-99.9,96,77,70,30.33,29.95,15,-100,24,0.53
2013-9-16,68.7,56.2,48.7,50.0,41.9,-99.9,83,64,40,30.49,30.34,14,-17,20,0.00
2013-9-17,63.3,56.7,48.2,58.0,51.3,45.0,89,82,71,30.39,30.07,12,5,16,0.04
2013-9-18,78.4,70.0,62.9,70.0,64.8,58.0,91,83,72,30.08,29.83,22,10,27,0.00
2013-9-19,83.8,72.4,69.4,72.0,64.2,-99.9,95,82,66,29.84,29.70,18,-25,31,1.08
2013-9-20,69.1,63.2,58.1,67.0,56.7,51.0,93,80,60,29.95,29.79,19,6,23,0.00
2013-9-21,62.9,47.0,51.1,52.0,23.7,-99.9,92,63,59,30.03,29.95,18,-164,18,0.00
2013-9-22,68.5,53.9,44.9,54.0,40.0,-99.9,96,71,57,30.13,30.00,13,-60,16,0.01
2013-9-23,71.7,55.1,51.2,54.0,35.2,-99.9,87,62,52,30.13,30.02,16,-98,23,0.00
2013-9-24,74.6,62.2,50.8,56.0,51.8,48.0,92,71,44,30.07,29.97,11,3,18,0.00
2013-9-25,71.8,60.5,49.9,56.0,52.9,48.0,95,78,51,30.08,29.97,11,2,14,0.01
2013-9-26,77.5,65.6,53.3,61.0,55.8,50.0,91,72,56,30.09,30.00,20,5,23,0.00
2013-9-27,80.6,70.8,61.9,64.0,56.2,50.0,71,61,48,30.10,29.97,24,11,29,0.00
2013-9-28,74.3,64.5,54.3,65.0,56.1,50.0,94,76,51,30.03,29.79,24,9,36,0.34
2013-9-29,71.0,57.4,48.5,54.0,47.4,-99.9,97,76,47,30.11,29.98,16,-15,20,0.00
2013-9-30,72.9,63.2,54.9,54.0,51.5,49.0,83,67,47,29.99,29.78,28,11,37,0.00
2013-10-1,78.7,66.9,56.4,59.0,53.3,-99.9,89,66,35,30.04,29.79,18,-5,22,0.00
2013-10-2,77.5,62.0,47.3,56.0,46.7,-99.9,97,64,28,30.18,29.93,14,-7,21,0.00
2013-10-3,68.9,63.1,57.6,65.0,58.9,-99.9,96,89,58,29.98,29.86,16,-7,23,0.72
2013-10-4,63.5,52.2,58.6,62.0,35.9,-99.9,97,80,92,30.02,29.91,19,-145,27,0.12
2013-10-5,68.9,58.7,52.3,66.0,48.3,-99.9,96,80,67,29.96,29.77,28,-58,28,1.60
2013-10-6,54.4,49.6,45.1,46.0,43.3,41.0,91,79,63,29.85,29.76,8,1,9,0.03
2013-10-7,66.6,52.9,47.1,51.0,40.8,-99.9,94,73,45,30.12,29.84,13,-41,24,0.02
2013-10-8,75.3,60.0,47.8,52.0,47.0,-99.9,94,68,37,30.15,30.04,21,-2,29,0.00
2013-10-9,72.2,64.0,56.7,52.0,50.2,48.0,81,62,44,30.20,30.10,19,8,25,0.00
2013-10-10,73.0,61.5,48.5,54.0,50.4,46.0,91,69,47,30.18,30.03,15,5,19,0.00
2013-10-11,75.5,66.8,57.0,58.0,54.9,52.0,86,67,49,30.03,29.84,26,10,36,0.00
2013-10-12,71.0,56.3,50.8,59.0,34.8,-99.9,77,55,39,30.24,29.83,19,-77,29,0.00
2013-10-13,61.3,29.7,44.4,40.0,-25.2,-99.9,81,30,39,30.49,30.25,14,-457,18,0.00
2013-10-14,62.2,49.9,37.8,45.0,38.3,-99.9,94,70,49,30.50,30.10,20,-16,27,0.00
2013-10-15,59.9,48.3,48.0,55.0,34.6,-99.9,95,76,65,30.11,29.79,23,-85,26,0.26
2013-10-16,50.9,48.5,42.3,49.0,45.1,40.0,96,88,78,30.03,29.82,14,5,20,0.01
2013-10-17,58.3,46.8,37.8,45.0,40.1,37.0,97,80,47,30.01,29.87,12,2,13,0.02
2013-10-18,51.2,46.6,40.7,45.0,38.1,31.0,88,73,48,30.03,29.89,15,5,29,0.00
2013-10-19,49.4,41.7,36.4,40.0,37.1,34.0,92,84,64,29.98,29.80,22,4,28,0.04
2013-10-20,51.2,41.5,33.3,44.0,37.1,32.0,94,85,73,29.92,29.74,22,6,30,0.04
2013-10-21,40.7,37.6,31.7,35.0,27.7,23.0,84,68,54,30.07,29.93,20,8,25,0.00
2013-10-22,43.8,35.1,26.7,32.0,28.5,24.0,90,77,62,30.11,30.04,14,4,19,0.00
2013-10-23,41.4,35.9,31.4,33.0,25.9,-99.9,89,72,51,30.17,30.09,19,-17,23,0.00
2013-10-24,42.4,38.5,34.1,29.0,26.2,23.0,78,62,50,30.42,30.17,14,5,19,0.00
2013-10-25,53.1,42.1,30.9,35.0,29.6,-99.9,89,66,42,30.45,29.93,24,-2,34,0.00
2013-10-26,52.9,46.3,39.6,39.0,33.0,30.0,74,60,51,30.17,29.86,21,7,29,0.00
2013-10-27,59.6,45.1,31.2,37.0,32.7,28.0,92,65,37,30.16,29.91,14,6,25,0.00
2013-10-28,45.4,39.4,36.2,33.0,25.9,-99.9,77,64,59,30.50,30.17,15,-24,25,0.00
2013-10-29,53.8,43.3,37.9,41.0,30.6,-99.9,76,66,58,30.49,30.17,14,-28,15,0.00
2013-10-30,56.0,47.6,46.7,53.0,36.5,-99.9,95,80,71,30.18,29.78,10,-71,16,0.00
2013-10-31,53.6,48.9,42.5,53.0,46.7,39.0,98,92,84,29.74,29.45,16,4,23,0.10
2013-11-1,49.7,44.7,42.0,41.0,39.5,36.0,92,82,68,29.89,29.46,12,5,20,0.00
2013-11-2,46.4,41.3,34.6,36.0,34.3,32.0,90,76,61,30.25,29.89,14,3,21,0.00
2013-11-3,52.6,38.2,32.9,37.0,16.3,-99.9,94,61,50,30.32,30.13,27,-123,36,0.00
2013-11-4,49.3,47.2,44.3,46.0,40.6,35.0,95,78,62,30.25,30.05,22,9,30,0.04
2013-11-5,44.7,40.4,35.9,44.0,38.4,-99.9,97,95,92,30.35,29.93,16,-7,21,0.96
2013-11-6,44.2,39.0,34.2,40.0,31.0,23.0,96,75,45,30.29,29.91,25,9,30,0.15
2013-11-7,43.1,35.3,31.0,33.0,29.6,26.0,92,80,62,30.35,30.27,11,4,22,0.00
2013-11-8,48.1,38.0,27.5,38.0,30.1,26.0,94,76,49,30.35,29.79,30,10,41,0.01
2013-11-9,48.1,44.6,37.7,41.0,34.1,-99.9,80,69,58,30.25,29.79,26,0,37,0.00
2013-11-10,47.6,42.1,36.9,33.0,30.5,29.0,73,64,51,30.44,30.19,14,6,26,0.00
2013-11-11,44.1,31.5,23.4,34.0,21.4,11.0,93,67,54,30.77,30.15,24,9,30,0.09
2013-11-12,29.2,22.4,17.4,16.0,12.7,10.0,76,67,54,30.91,30.67,13,6,19,0.00
2013-11-13,45.2,34.1,21.0,28.0,20.9,14.0,78,60,46,30.67,30.09,21,12,35,0.00
2013-11-14,48.6,41.9,35.4,34.0,28.1,21.0,72,59,49,30.08,29.92,19,8,25,0.00
2013-11-15,53.7,41.9,31.3,39.0,33.4,-99.9,92,75,58,30.01,29.87,14,-5,20,0.00
2013-11-16,61.4,49.5,42.9,57.0,45.2,36.0,95,85,71,29.86,29.40,26,11,31,0.12
2013-11-17,53.4,45.4,36.0,49.0,41.2,29.0,97,85,73,29.87,29.38,26,8,40,0.17
2013-11-18,37.0,32.3,26.6,29.0,20.8,-99.9,87,69,61,30.40,29.88,23,-24,34,0.00
2013-11-19,44.3,33.7,22.9,29.0,24.8,21.0,93,72,47,30.43,30.21,23,8,26,0.00
2013-11-20,40.7,38.6,35.6,36.0,30.5,26.0,94,74,57,30.22,30.11,24,10,29,0.02
2013-11-21,40.6,37.5,29.6,38.0,35.1,27.0,95,91,84,30.48,30.16,18,4,25,0.00
2013-11-22,34.5,26.3,25.2,27.0,9.5,-99.9,93,64,43,30.67,30.49,19,-77,28,0.00
2013-11-23,26.1,16.3,12.7,18.0,6.4,4.0,72,65,52,30.91,30.61,28,9,31,0.01
2013-11-24,26.6,18.9,9.6,11.0,7.3,4.0,84,62,40,30.88,30.32,26,10,37,0.00
2013-11-25,40.1,32.9,26.0,29.0,22.4,9.0,81,66,46,30.31,30.09,25,10,32,0.00
2013-11-26,37.5,25.7,16.7,26.0,13.4,5.0,72,60,44,30.44,30.13,21,10,32,0.00
2013-11-27,28.4,20.5,13.9,13.0,10.1,6.0,77,64,51,30.49,30.28,18,5,22,0.00
2013-11-28,31.3,25.1,23.3,17.0,8.9,-99.9,68,59,54,30.64,30.23,18,-48,19,0.00
2013-11-29,32.7,25.3,17.5,23.0,14.2,-99.9,88,71,60,30.70,30.38,21,-15,25,0.00
2013-11-30,47.4,36.6,31.3,31.0,27.3,22.0,78,69,53,30.37,30.12,19,7,26,0.00
2013-12-1,40.0,33.9,28.2,29.0,27.0,25.0,87,76,62,30.29,30.07,6,2,10,0.00
2013-12-2,40.7,33.4,25.1,34.0,29.8,23.0,93,87,73,30.06,29.78,15,5,28,0.11
2013-12-3,37.2,36.1,34.6,36.0,34.6,33.0,95,94,92,29.85,29.76,12,5,19,0.13
2013-12-4,41.1,35.5,27.6,40.0,33.8,22.0,97,94,78,29.85,29.51,21,4,30,0.08
2013-12-5,26.8,15.4,8.7,22.0,7.9,2.0,82,72,61,30.49,29.82,21,10,27,0.00
2013-12-6,12.5,7.6,2.7,3.0,0.5,-3.0,77,73,63,30.80,30.47,14,7,19,0.00
2013-12-7,12.6,5.7,-1.2,1.0,-3.2,-7.0,77,67,51,30.90,30.76,11,4,16,0.00
2013-12-8,15.9,12.4,9.2,12.0,8.3,0.0,89,83,67,30.76,30.16,9,4,12,0.00
2013-12-9,13.5,7.3,0.6,11.0,0.7,-99.9,90,77,63,30.33,30.13,19,-4,25,0.00
2013-12-10,14.5,10.4,1.5,12.0,4.0,-4.0,88,76,62,30.38,30.01,20,8,29,0.00
2013-12-11,16.0,5.1,-0.3,13.0,-2.6,-8.0,89,71,56,30.70,30.38,14,6,23,0.00
2013-12-12,23.0,13.4,0.6,14.0,5.6,-99.9,83,74,65,30.62,30.31,22,-3,24,0.00
2013-12-13,24.0,19.6,15.8,15.0,13.2,8.0,87,76,66,30.37,30.27,18,7,24,0.00
2013-12-14,20.7,16.9,12.3,17.0,11.3,-99.9,87,81,71,30.37,30.17,20,-4,23,0.00
2013-12-15,12.2,7.5,3.9,6.0,-0.8,-6.0,77,69,61,30.32,30.17,13,6,22,0.00
2013-12-16,17.7,9.1,1.9,15.0,3.1,-6.0,89,77,63,30.31,30.15,10,5,13,0.00
2013-12-17,32.1,25.4,17.6,26.0,18.7,11.0,98,76,65,30.24,30.02,22,10,29,0.00
2013-12-18,40.6,25.6,13.1,29.0,19.1,9.0,88,77,60,30.24,29.82,24,8,29,0.00
2013-12-19,30.1,25.6,24.1,27.0,19.4,-99.9,93,82,74,30.12,29.90,20,-13,26,0.00
2013-12-20,24.7,21.8,20.1,23.0,18.6,-99.9,94,90,88,30.09,29.96,15,-4,20,0.00
2013-12-21,27.8,24.9,22.0,25.0,22.2,20.0,93,89,83,30.06,29.95,15,5,25,0.00
2013-12-22,26.5,23.8,14.6,24.0,21.1,11.0,100,89,84,30.31,29.95,15,6,20,0.00
2013-12-23,13.7,4.0,-2.8,10.0,-1.5,-8.0,85,78,70,30.66,30.31,14,6,16,0.00
2013-12-24,11.2,1.9,-9.9,7.0,-4.0,-99.9,89,79,70,30.71,30.40,20,-4,23,0.00
2013-12-25,25.8,16.9,8.8,23.0,13.7,6.0,91,87,79,30.40,30.21,18,8,23,0.00
2013-12-26,27.9,21.7,14.2,23.0,16.9,10.0,86,82,75,30.32,30.25,10,2,13,0.00
2013-12-27,39.4,27.9,15.6,33.0,23.9,14.0,94,85,73,30.34,30.09,24,7,26,0.00
2013-12-28,43.0,35.1,25.4,33.0,29.4,24.0,95,80,65,30.15,29.83,20,10,23,0.00
2013-12-29,34.9,11.7,-4.5,32.0,2.5,-99.9,92,71,59,30.47,29.91,22,-12,36,0.00
2013-12-30,3.3,-2.5,-9.7,-1.0,-8.1,-15.0,85,77,65,30.51,30.38,9,2,11,0.00
2013-12-31,5.8,2.7,-1.7,0.0,-2.8,-9.0,86,78,65,30.57,30.38,11,4,13,0.00
2014-1-1,9.1,3.6,-2.8,-2.0,-6.3,-99.9,74,66,57,30.62,30.53,15,-4,16,0.00
2014-1-2,10.8,5.9,-1.7,1.0,-3.0,-99.9,80,70,61,30.63,30.51,12,-5,16,0.00